createdAt,value
2022-09-04T00:05:02.179Z,151.71
2022-09-04T00:10:33.558Z,151.02
2022-09-04T00:16:05.422Z,151.15
2022-09-04T00:27:17.576Z,150.20
2022-09-04T00:32:49.320Z,150.07
2022-09-04T00:38:23.853Z,149.00
2022-09-04T00:43:55.278Z,149.26
2022-09-04T00:49:27.650Z,150.47
2022-09-04T00:55:05.509Z,151.02
2022-09-04T01:00:37.390Z,151.29
2022-09-04T01:06:08.995Z,150.07
2022-09-04T01:11:40.810Z,149.00
2022-09-04T01:17:12.765Z,148.07
2022-09-04T01:22:45.690Z,148.07
2022-09-04T01:28:18.509Z,148.20
2022-09-04T01:33:49.963Z,145.49
2022-09-04T01:39:21.967Z,145.49
2022-09-04T01:44:53.666Z,144.48
2022-09-04T01:50:31.286Z,144.86
2022-09-04T01:56:02.881Z,143.61
2022-09-04T02:01:34.994Z,144.11
2022-09-04T02:07:06.424Z,145.24
2022-09-04T02:12:38.055Z,146.51
2022-09-04T02:23:41.680Z,151.71
2022-09-04T02:29:13.611Z,155.67
2022-09-04T02:34:45.610Z,154.66
2022-09-04T02:40:17.384Z,151.98
2022-09-04T02:45:49.111Z,150.88
2022-09-04T02:51:20.989Z,150.34
2022-09-04T02:56:53.187Z,148.86
2022-09-04T02:59:16.914Z,148.86
2022-09-04T03:10:20.268Z,150.74
2022-09-04T03:15:52.495Z,150.61
2022-09-04T03:21:24.273Z,150.61
2022-09-04T03:26:55.939Z,149.80
2022-09-04T03:32:27.801Z,149.66
2022-09-04T03:37:59.636Z,149.93
2022-09-04T03:43:31.358Z,148.33
2022-09-04T03:49:03.019Z,148.20
2022-09-04T03:54:34.822Z,147.16
2022-09-04T04:00:06.513Z,146.25
2022-09-04T04:11:10.874Z,146.64
2022-09-04T04:16:42.533Z,145.87
2022-09-04T04:27:43.868Z,146.90
2022-09-04T04:33:15.523Z,147.29
2022-09-04T04:38:47.638Z,147.03
2022-09-04T04:44:19.894Z,147.94
2022-09-04T04:49:51.510Z,147.29
2022-09-04T04:55:23.315Z,147.29
2022-09-04T05:00:55.243Z,148.60
2022-09-04T05:06:26.948Z,147.68
2022-09-04T05:11:58.911Z,147.42
2022-09-04T05:17:31.090Z,148.20
2022-09-04T05:23:02.858Z,148.60
2022-09-04T05:28:34.483Z,148.33
2022-09-04T05:34:06.258Z,149.66
2022-09-04T05:39:37.830Z,149.93
2022-09-04T05:45:09.626Z,148.07
2022-09-04T05:50:41.410Z,147.03
2022-09-04T05:56:13.119Z,148.73
2022-09-04T06:07:16.912Z,154.23
2022-09-04T06:12:48.676Z,154.51
2022-09-04T06:23:49.631Z,152.54
2022-09-04T06:29:21.586Z,145.36
2022-09-04T06:34:53.436Z,140.59
2022-09-04T06:42:37.202Z,134.14
2022-09-04T06:48:08.495Z,129.96
2022-09-04T06:53:40.736Z,124.25
2022-09-04T06:59:12.697Z,117.52
2022-09-04T07:04:44.377Z,113.83
2022-09-04T07:10:15.873Z,110.08
2022-09-04T07:15:47.463Z,106.70
2022-09-04T07:21:19.187Z,103.39
2022-09-04T07:26:51.125Z,100.65
2022-09-04T07:32:22.724Z,98.57
2022-09-04T07:43:23.791Z,96.51
2022-09-04T07:48:55.699Z,95.25
2022-09-04T07:54:27.444Z,95.47
2022-09-04T08:05:31.113Z,94.35
2022-09-04T08:11:02.926Z,93.40
2022-09-04T08:16:34.744Z,93.72
2022-09-04T08:22:06.323Z,93.19
2022-09-04T08:38:39.267Z,92.57
2022-09-04T08:44:10.739Z,92.37
2022-09-04T08:49:42.398Z,92.47
2022-09-04T08:55:14.246Z,92.06
2022-09-04T09:00:45.987Z,92.57
2022-09-04T09:06:17.173Z,92.68
2022-09-04T09:17:19.040Z,92.57
2022-09-04T09:22:50.932Z,92.57
2022-09-04T09:28:22.523Z,92.88
2022-09-04T09:33:53.862Z,93.19
2022-09-04T09:44:54.904Z,94.14
2022-09-04T09:50:26.366Z,95.21
2022-09-04T09:55:57.841Z,94.33
2022-09-04T10:01:29.830Z,95.41
2022-09-04T10:12:31.545Z,97.76
2022-09-04T10:18:03.099Z,97.87
2022-09-04T10:23:34.704Z,98.51
2022-09-04T10:29:05.955Z,97.99
2022-09-04T10:34:37.341Z,98.45
2022-09-04T10:40:09.130Z,99.69
2022-09-04T10:45:40.420Z,100.83
2022-09-04T10:51:11.587Z,101.01
2022-09-04T10:56:42.951Z,101.26
2022-09-04T11:02:14.264Z,101.01
2022-09-04T11:07:45.463Z,101.63
2022-09-04T11:13:16.974Z,102.19
2022-09-04T11:18:48.840Z,102.69
2022-09-04T11:24:20.613Z,103.58
2022-09-04T11:29:52.214Z,103.33
2022-09-04T11:35:24.040Z,103.91
2022-09-04T11:40:55.634Z,103.07
2022-09-04T11:46:27.554Z,103.33
2022-09-04T11:51:59.241Z,104.75
2022-09-04T11:57:31.245Z,105.95
2022-09-04T12:03:02.927Z,105.89
2022-09-04T12:08:34.561Z,106.15
2022-09-04T12:14:06.406Z,106.02
2022-09-04T12:19:38.109Z,106.56
2022-09-04T12:25:09.739Z,107.80
2022-09-04T12:30:41.763Z,108.93
2022-09-04T12:36:13.488Z,109.14
2022-09-04T12:41:49.279Z,109.93
2022-09-04T12:47:17.267Z,110.08
2022-09-04T12:52:48.899Z,110.51
2022-09-04T12:58:20.412Z,110.81
2022-09-04T13:03:51.804Z,110.81
2022-09-04T13:09:23.823Z,110.95
2022-09-04T13:14:55.467Z,110.37
2022-09-04T13:20:27.032Z,110.66
2022-09-04T13:25:59.205Z,110.37
2022-09-04T13:31:31.249Z,110.81
2022-09-04T13:37:02.871Z,110.88
2022-09-04T13:42:34.651Z,112.15
2022-09-04T13:48:06.603Z,111.32
2022-09-04T13:53:38.252Z,111.85
2022-09-04T13:59:10.033Z,112.45
2022-09-04T14:04:41.797Z,114.22
2022-09-04T14:10:13.498Z,113.83
2022-09-04T14:15:45.304Z,114.53
2022-09-04T14:21:17.188Z,114.46
2022-09-04T14:26:48.680Z,115.01
2022-09-04T14:32:20.482Z,115.64
2022-09-04T14:37:52.247Z,116.70
2022-09-04T14:43:24.398Z,116.29
2022-09-04T14:48:55.820Z,117.60
2022-09-04T14:54:27.648Z,117.77
2022-09-04T14:59:59.408Z,118.27
2022-09-04T15:05:31.285Z,118.18
2022-09-04T15:11:03.169Z,118.27
2022-09-04T15:16:34.905Z,118.27
2022-09-04T15:22:06.851Z,119.28
2022-09-04T15:27:38.550Z,121.01
2022-09-04T15:33:10.153Z,120.66
2022-09-04T15:38:41.818Z,120.84
2022-09-04T15:44:13.694Z,121.19
2022-09-04T15:49:45.666Z,122.07
2022-09-04T15:55:17.369Z,123.06
2022-09-04T16:00:48.958Z,123.43
2022-09-04T16:06:20.881Z,123.06
2022-09-04T16:11:52.491Z,122.88
2022-09-04T16:17:25.880Z,123.34
2022-09-04T16:22:57.478Z,123.98
2022-09-04T16:28:29.479Z,124.07
2022-09-04T16:34:00.957Z,124.25
2022-09-04T16:39:32.671Z,125.28
2022-09-04T16:45:04.052Z,123.89
2022-09-04T16:50:36.034Z,124.07
2022-09-04T16:56:07.951Z,123.61
2022-09-04T17:01:39.297Z,124.72
2022-09-04T17:07:11.140Z,124.63
2022-09-04T17:12:43.156Z,126.52
2022-09-04T17:18:14.793Z,126.61
2022-09-04T17:29:03.743Z,128.66
2022-09-04T17:29:33.803Z,129.86
2022-09-04T17:38:42.707Z,129.06
2022-09-04T17:40:55.517Z,128.86
2022-09-04T17:45:53.317Z,128.96
2022-09-04T17:51:25.196Z,128.46
2022-09-04T17:56:56.800Z,129.36
2022-09-04T18:02:28.428Z,129.56
2022-09-04T18:08:07.340Z,128.86
2022-09-04T18:13:37.886Z,127.39
2022-09-04T18:19:03.681Z,129.16
2022-09-04T18:24:35.413Z,127.78
2022-09-04T18:36:15.613Z,129.06
2022-09-04T18:47:28.782Z,129.46
2022-09-04T18:50:46.625Z,132.13
2022-09-04T18:54:35.822Z,136.11
2022-09-04T19:00:08.427Z,138.95
2022-09-04T19:05:44.718Z,139.18
2022-09-04T19:11:20.611Z,139.18
2022-09-04T19:16:42.858Z,139.64
2022-09-04T19:22:14.064Z,140.94
2022-09-04T19:27:45.429Z,141.42
2022-09-04T19:33:16.826Z,143.12
2022-09-04T19:45:03.670Z,142.14
2022-09-04T19:46:07.886Z,142.99
2022-09-04T19:53:20.263Z,143.24
2022-09-04T19:55:26.022Z,143.98
2022-09-04T20:00:55.842Z,143.98
2022-09-04T20:06:27.279Z,144.73
2022-09-04T20:11:58.839Z,146.38
2022-09-04T20:17:30.691Z,145.49
2022-09-04T20:23:02.406Z,147.16
2022-09-04T20:28:34.192Z,146.90
2022-09-04T20:34:08.214Z,146.25
2022-09-04T20:39:37.690Z,147.81
2022-09-04T20:47:59.645Z,147.68
2022-09-04T20:52:59.018Z,149.40
2022-09-04T20:56:13.373Z,150.61
2022-09-04T21:03:22.836Z,151.43
2022-09-04T21:07:15.830Z,150.61
2022-09-04T21:12:46.935Z,153.80
2022-09-04T21:18:18.631Z,154.51
2022-09-04T21:24:02.780Z,156.40
2022-09-04T21:29:21.569Z,157.88
2022-09-04T21:34:53.427Z,159.38
2022-09-04T21:40:50.390Z,160.30
2022-09-04T21:45:56.637Z,159.38
2022-09-04T21:51:29.376Z,160.30
2022-09-04T22:01:11.993Z,160.30
2022-09-04T22:02:52.858Z,161.54
2022-09-04T22:13:12.311Z,161.86
2022-09-04T22:13:49.197Z,162.96
2022-09-04T22:19:16.207Z,167.38
2022-09-04T22:24:41.286Z,167.38
2022-09-04T22:30:12.147Z,168.90
2022-09-04T22:35:43.688Z,171.86
2022-09-04T22:46:44.917Z,170.63
2022-09-04T22:52:16.670Z,170.63
2022-09-04T22:57:48.569Z,168.90
2022-09-04T23:03:20.388Z,168.39
2022-09-04T23:13:50.102Z,169.93
2022-09-04T23:14:24.107Z,169.07
2022-09-04T23:19:55.368Z,169.59
2022-09-04T23:36:33.649Z,179.82
2022-09-04T23:42:02.319Z,181.58
2022-09-04T23:47:48.213Z,179.43
2022-09-04T23:53:05.821Z,177.53
2022-09-04T23:58:47.244Z,177.34
